createdAt,value
2018-11-28T00:00:24.301Z,102374.53
2018-11-28T00:02:53.289Z,102372.67
2018-11-28T00:05:22.324Z,102366.21
2018-11-28T00:07:51.551Z,102360.45
2018-11-28T00:10:20.902Z,102358.63
2018-11-28T00:12:49.743Z,102358.03
2018-11-28T00:15:18.931Z,102353.73
2018-11-28T00:17:47.830Z,102350.78
2018-11-28T00:20:18.175Z,102349.76
2018-11-28T00:22:47.520Z,102347.17
2018-11-28T00:25:17.333Z,102352.67
2018-11-28T00:27:46.208Z,102343.27
2018-11-28T00:30:19.480Z,102345.81
2018-11-28T00:32:48.351Z,102339.45
2018-11-28T00:35:19.145Z,102338.97
2018-11-28T00:37:48.393Z,102305.16
2018-11-28T00:40:18.674Z,102332.19
2018-11-28T00:42:47.671Z,102326.30
2018-11-28T00:45:18.100Z,102322.51
2018-11-28T00:47:47.061Z,102327.28
2018-11-28T00:50:19.872Z,102323.86
2018-11-28T00:52:48.644Z,102323.74
2018-11-28T00:55:18.661Z,102324.14
2018-11-28T00:57:47.730Z,102327.81
2018-11-28T01:00:19.309Z,102323.45
2018-11-28T01:02:48.424Z,102327.48
2018-11-28T01:05:18.023Z,102326.41
2018-11-28T01:07:47.816Z,102319.18
2018-11-28T01:10:18.126Z,102325.20
2018-11-28T01:12:47.358Z,102322.17
2018-11-28T01:15:17.365Z,102327.27
2018-11-28T01:17:46.705Z,102321.19
2018-11-28T01:20:16.458Z,102324.53
2018-11-28T01:22:45.555Z,102320.98
2018-11-28T01:25:15.468Z,102315.27
2018-11-28T01:27:44.551Z,102316.06
2018-11-28T01:30:18.430Z,102105.53
2018-11-28T01:32:47.648Z,102303.59
2018-11-28T01:35:17.627Z,102306.14
2018-11-28T01:37:46.950Z,102302.25
2018-11-28T01:40:16.744Z,102304.24
2018-11-28T01:42:45.793Z,102307.06
2018-11-28T01:45:17.562Z,102303.64
2018-11-28T01:47:46.823Z,102307.06
2018-11-28T01:50:16.693Z,102300.30
2018-11-28T01:52:45.832Z,102304.13
2018-11-28T01:55:19.778Z,102299.03
2018-11-28T01:57:48.630Z,102296.48
2018-11-28T02:00:19.778Z,102303.89
2018-11-28T02:02:49.988Z,102294.30
2018-11-28T02:05:19.383Z,102300.34
2018-11-28T02:07:48.304Z,102313.48
2018-11-28T02:10:17.836Z,102303.37
2018-11-28T02:12:46.698Z,102294.93
2018-11-28T02:15:18.620Z,102296.65
2018-11-28T02:17:47.846Z,102295.84
2018-11-28T02:20:18.021Z,102293.78
2018-11-28T02:22:47.195Z,102291.70
2018-11-28T02:25:16.974Z,102293.30
2018-11-28T02:27:46.604Z,102288.61
2018-11-28T02:30:17.416Z,102275.00
2018-11-28T02:32:46.800Z,102289.84
2018-11-28T02:35:16.380Z,102282.12
2018-11-28T02:37:45.159Z,102280.48
2018-11-28T02:40:16.188Z,102288.20
2018-11-28T02:42:45.671Z,102281.36
2018-11-28T02:45:17.813Z,102289.08
2018-11-28T02:47:47.238Z,102293.38
2018-11-28T02:50:16.131Z,102288.28
2018-11-28T02:52:45.153Z,102295.92
2018-11-28T02:55:14.970Z,102281.36
2018-11-28T02:57:45.022Z,102280.56
2018-11-28T03:00:18.263Z,102282.64
2018-11-28T03:02:46.962Z,102274.95
2018-11-28T03:05:15.864Z,102281.77
2018-11-28T03:07:44.654Z,102033.11
2018-11-28T03:10:16.665Z,102269.90
2018-11-28T03:12:45.714Z,102271.25
2018-11-28T03:15:17.546Z,102245.20
2018-11-28T03:17:46.579Z,102259.06
2018-11-28T03:20:15.475Z,102259.06
2018-11-28T03:22:44.872Z,102264.16
2018-11-28T03:25:14.147Z,102261.06
2018-11-28T03:27:43.405Z,102255.84
2018-11-28T03:30:13.923Z,102260.06
2018-11-28T03:32:42.910Z,102255.56
2018-11-28T03:35:13.790Z,102252.23
2018-11-28T03:37:42.824Z,102253.89
2018-11-28T03:40:12.050Z,102253.50
2018-11-28T03:42:41.234Z,102247.53
2018-11-28T03:45:14.253Z,102251.75
2018-11-28T03:47:43.979Z,102248.20
2018-11-28T03:50:13.881Z,102248.13
2018-11-28T03:52:42.979Z,102248.61
2018-11-28T03:55:13.841Z,102242.23
2018-11-28T03:57:43.288Z,102241.01
2018-11-28T04:00:14.802Z,102241.56
2018-11-28T04:02:44.214Z,102241.16
2018-11-28T04:05:13.491Z,102242.91
2018-11-28T04:07:42.321Z,102239.16
2018-11-28T04:10:14.988Z,102236.66
2018-11-28T04:12:44.376Z,102237.61
2018-11-28T04:15:20.492Z,102237.28
2018-11-28T04:17:49.814Z,102239.03
2018-11-28T04:20:19.607Z,102237.00
2018-11-28T04:22:48.627Z,102243.45
2018-11-28T04:25:18.770Z,102238.34
2018-11-28T04:27:47.880Z,102239.98
2018-11-28T04:30:17.903Z,102237.00
2018-11-28T04:32:47.232Z,102238.70
2018-11-28T04:35:16.137Z,102233.18
2018-11-28T04:37:45.719Z,102227.36
2018-11-28T04:40:16.597Z,102233.48
2018-11-28T04:42:46.362Z,102226.71
2018-11-28T04:45:19.985Z,102225.88
2018-11-28T04:47:49.369Z,102217.17
2018-11-28T04:50:18.321Z,102220.59
2018-11-28T04:52:47.690Z,102220.92
2018-11-28T04:55:17.346Z,102218.05
2018-11-28T04:57:46.753Z,102221.06
2018-11-28T05:00:30.436Z,102217.25
2018-11-28T05:02:59.591Z,102216.44
2018-11-28T05:05:28.706Z,102219.39
2018-11-28T05:07:57.702Z,102227.44
2018-11-28T05:10:27.768Z,102222.81
2018-11-28T05:12:57.155Z,102212.70
2018-11-28T05:15:29.895Z,102209.27
2018-11-28T05:17:58.912Z,102207.85
2018-11-28T05:20:28.614Z,102209.85
2018-11-28T05:22:57.418Z,102212.40
2018-11-28T05:25:28.169Z,102216.63
2018-11-28T05:27:57.753Z,102218.77
2018-11-28T05:30:28.566Z,102214.91
2018-11-28T05:32:57.408Z,101703.63
2018-11-28T05:35:31.303Z,102215.70
2018-11-28T05:38:00.514Z,102214.51
2018-11-28T05:40:29.610Z,102217.09
2018-11-28T05:42:58.827Z,102206.58
2018-11-28T05:45:27.905Z,102209.60
2018-11-28T05:47:56.933Z,102215.09
2018-11-28T05:50:26.027Z,102215.89
2018-11-28T05:52:55.173Z,102213.75
2018-11-28T05:55:24.359Z,102020.79
2018-11-28T05:57:53.405Z,102213.27
2018-11-28T06:00:25.540Z,102226.81
2018-11-28T06:02:54.611Z,102218.84
2018-11-28T06:05:23.741Z,102219.31
2018-11-28T06:07:52.754Z,102218.92
2018-11-28T06:10:21.882Z,102213.09
2018-11-28T06:12:50.760Z,102209.39
2018-11-28T06:15:19.821Z,102213.76
2018-11-28T06:17:48.679Z,102212.59
2018-11-28T06:20:17.923Z,102206.70
2018-11-28T06:22:47.043Z,102211.76
2018-11-28T06:25:17.073Z,102210.73
2018-11-28T06:27:45.898Z,102213.21
2018-11-28T06:30:15.923Z,102206.33
2018-11-28T06:32:51.016Z,102204.58
2018-11-28T06:35:14.871Z,102213.09
2018-11-28T06:37:44.082Z,102213.50
2018-11-28T06:40:15.957Z,102211.42
2018-11-28T06:42:45.924Z,102208.44
2018-11-28T06:45:16.129Z,102207.17
2018-11-28T06:47:45.357Z,102208.00
2018-11-28T06:50:16.739Z,102213.21
2018-11-28T06:52:47.232Z,102214.48
2018-11-28T06:55:18.265Z,102214.02
2018-11-28T06:57:47.216Z,102215.76
2018-11-28T07:00:18.337Z,102216.16
2018-11-28T07:02:47.733Z,102222.68
2018-11-28T07:05:16.754Z,102223.08
2018-11-28T07:07:45.973Z,102219.26
2018-11-28T07:10:16.004Z,102225.70
2018-11-28T07:12:45.757Z,102218.93
2018-11-28T07:15:15.520Z,102215.11
2018-11-28T07:17:44.756Z,102225.41
2018-11-28T07:20:15.788Z,102218.56
2018-11-28T07:22:44.807Z,102224.61
2018-11-28T07:25:18.802Z,102225.63
2018-11-28T07:27:48.558Z,102223.60
2018-11-28T07:30:22.463Z,102224.47
2018-11-28T07:32:53.828Z,102226.81
2018-11-28T07:35:22.963Z,102226.48
2018-11-28T07:37:52.393Z,102223.97
2018-11-28T07:40:23.541Z,102219.23
2018-11-28T07:42:57.537Z,102223.09
2018-11-28T07:45:26.743Z,102220.91
2018-11-28T07:47:55.620Z,102220.44
2018-11-28T07:50:24.771Z,102220.88
2018-11-28T07:52:53.865Z,102226.41
2018-11-28T07:55:23.081Z,102226.77
2018-11-28T07:57:52.630Z,102223.82
2018-11-28T08:00:21.600Z,102229.79
2018-11-28T08:02:50.545Z,102218.77
2018-11-28T08:05:19.480Z,102223.94
2018-11-28T08:07:48.482Z,102214.65
2018-11-28T08:10:21.543Z,102215.05
2018-11-28T08:12:52.578Z,102216.33
2018-11-28T08:15:21.779Z,102214.72
2018-11-28T08:17:51.126Z,102215.20
2018-11-28T08:20:20.462Z,102218.66
2018-11-28T08:22:50.282Z,102222.48
2018-11-28T08:25:50.727Z,102215.71
2018-11-28T08:28:19.765Z,102218.80
2018-11-28T08:30:49.721Z,102216.33
2018-11-28T08:33:18.744Z,102222.08
2018-11-28T08:35:48.353Z,102223.91
2018-11-28T08:38:17.611Z,102221.79
2018-11-28T08:40:46.772Z,102224.77
2018-11-28T08:43:15.896Z,102218.91
2018-11-28T08:45:45.243Z,102215.89
2018-11-28T08:48:19.186Z,102219.38
2018-11-28T08:50:49.086Z,102220.73
2018-11-28T08:53:17.841Z,102218.69
2018-11-28T08:55:47.541Z,102222.59
2018-11-28T08:58:16.748Z,102226.66
2018-11-28T09:00:45.845Z,102222.98
2018-11-28T09:03:15.070Z,102217.70
2018-11-28T09:05:44.329Z,102214.14
2018-11-28T09:08:13.593Z,102208.94
2018-11-28T09:10:42.942Z,102205.17
2018-11-28T09:13:12.319Z,102200.54
2018-11-28T09:15:41.072Z,102203.16
2018-11-28T09:18:10.417Z,102199.73
2018-11-28T09:20:39.666Z,102194.09
2018-11-28T09:23:08.819Z,102196.95
2018-11-28T09:25:38.050Z,102187.64
2018-11-28T09:28:07.629Z,102183.95
2018-11-28T09:30:37.002Z,102189.92
2018-11-28T09:33:06.685Z,102185.14
2018-11-28T09:35:35.784Z,102178.87
2018-11-28T09:38:05.010Z,102185.77
2018-11-28T09:40:34.211Z,102183.02
2018-11-28T09:43:03.365Z,102173.20
2018-11-28T09:45:32.566Z,102186.98
2018-11-28T09:48:01.523Z,102169.66
2018-11-28T09:50:30.611Z,102170.15
2018-11-28T09:52:59.419Z,102172.16
2018-11-28T09:55:29.674Z,102174.69
2018-11-28T09:57:59.329Z,102167.39
2018-11-28T10:00:29.448Z,102164.99
2018-11-28T10:03:04.398Z,102163.90
2018-11-28T10:05:34.975Z,102146.92
2018-11-28T10:08:05.236Z,102151.80
2018-11-28T10:10:34.493Z,102149.88
2018-11-28T10:13:03.541Z,102151.23
2018-11-28T10:15:35.542Z,102142.43
2018-11-28T10:18:01.618Z,102139.95
2018-11-28T10:20:30.592Z,102132.95
2018-11-28T10:22:59.778Z,102130.03
2018-11-28T10:25:28.808Z,102144.30
2018-11-28T10:28:00.418Z,102144.98
2018-11-28T10:30:30.512Z,102136.55
2018-11-28T10:32:59.639Z,102141.26
2018-11-28T10:35:28.681Z,102128.50
2018-11-28T10:37:57.700Z,102118.75
2018-11-28T10:40:27.860Z,102117.42
2018-11-28T10:42:58.077Z,102116.19
2018-11-28T10:45:31.897Z,102115.84
2018-11-28T10:48:01.519Z,102110.82
2018-11-28T10:50:30.616Z,102110.13
2018-11-28T10:52:59.797Z,102109.17
2018-11-28T10:55:29.272Z,102094.76
2018-11-28T10:57:58.709Z,102094.50
2018-11-28T11:00:33.793Z,102088.56
2018-11-28T11:03:07.961Z,102099.28
2018-11-28T11:05:41.986Z,102089.84
2018-11-28T11:08:15.979Z,102088.72
2018-11-28T11:10:49.795Z,102080.66
2018-11-28T11:13:24.015Z,102078.65
2018-11-28T11:15:57.088Z,102070.59
2018-11-28T11:18:26.703Z,102073.20
2018-11-28T11:20:55.704Z,102073.36
2018-11-28T11:23:24.896Z,102068.59
2018-11-28T11:25:54.619Z,102076.75
2018-11-28T11:28:23.760Z,102065.57
2018-11-28T11:30:52.610Z,102065.66
2018-11-28T11:33:21.594Z,102068.77
2018-11-28T11:35:50.631Z,102061.63
2018-11-28T11:38:19.507Z,102053.94
2018-11-28T11:40:48.517Z,102042.80
2018-11-28T11:43:17.581Z,102047.06
2018-11-28T11:45:46.867Z,102038.58
2018-11-28T11:48:16.026Z,102033.87
2018-11-28T11:50:45.635Z,102057.97
2018-11-28T11:53:14.681Z,102057.97
2018-11-28T11:55:43.458Z,102061.22
2018-11-28T11:58:19.121Z,102059.39
2018-11-28T12:00:49.706Z,102020.07
2018-11-28T12:03:18.910Z,102051.02
2018-11-28T12:05:52.851Z,102059.08
2018-11-28T12:08:21.876Z,102046.11
2018-11-28T12:10:51.243Z,102055.77
2018-11-28T12:13:20.128Z,102048.66
2018-11-28T12:15:49.346Z,102046.09
2018-11-28T12:18:18.653Z,102044.06
2018-11-28T12:20:50.676Z,102041.95
2018-11-28T12:23:19.589Z,102036.81
2018-11-28T12:25:48.701Z,102032.38
2018-11-28T12:28:17.708Z,102035.02
2018-11-28T12:30:46.744Z,101801.04
2018-11-28T12:33:15.632Z,102013.75
2018-11-28T12:35:44.520Z,102006.72
2018-11-28T12:38:13.339Z,102008.66
2018-11-28T12:40:42.372Z,102019.27
2018-11-28T12:43:11.744Z,102011.16
2018-11-28T12:45:42.799Z,102008.22
2018-11-28T12:48:12.100Z,102006.20
2018-11-28T12:50:41.528Z,102003.31
2018-11-28T12:53:11.982Z,102004.78
2018-11-28T12:55:41.305Z,102003.32
2018-11-28T12:58:16.436Z,101998.79
2018-11-28T13:00:45.762Z,102000.71
2018-11-28T13:03:16.423Z,102006.47
2018-11-28T13:05:45.648Z,102004.93
2018-11-28T13:08:14.645Z,102006.84
2018-11-28T13:10:44.019Z,101942.41
2018-11-28T13:13:13.497Z,101998.77
2018-11-28T13:15:42.607Z,101992.64
2018-11-28T13:18:12.109Z,101989.09
2018-11-28T13:20:43.581Z,101994.03
2018-11-28T13:23:13.718Z,101991.34
2018-11-28T13:25:42.783Z,101982.61
2018-11-28T13:28:11.958Z,101989.63
2018-11-28T13:30:41.041Z,101974.91
2018-11-28T13:33:10.480Z,101976.89
2018-11-28T13:35:39.944Z,101972.37
2018-11-28T13:38:11.556Z,101968.72
2018-11-28T13:40:41.078Z,101965.53
2018-11-28T13:43:10.094Z,101960.56
2018-11-28T13:45:40.931Z,101954.56
2018-11-28T13:48:10.358Z,101953.52
2018-11-28T13:50:39.294Z,101959.00
2018-11-28T13:53:11.077Z,101952.50
2018-11-28T13:55:43.158Z,101948.98
2018-11-28T13:58:12.231Z,101947.66
2018-11-28T14:00:41.102Z,101954.84
2018-11-28T14:03:10.790Z,101950.55
2018-11-28T14:05:39.592Z,101943.64
2018-11-28T14:08:09.185Z,101934.97
2018-11-28T14:10:38.566Z,101943.36
2018-11-28T14:13:07.938Z,101937.78
2018-11-28T14:15:37.058Z,101939.88
2018-11-28T14:18:15.364Z,101943.17
2018-11-28T14:20:44.403Z,101934.96
2018-11-28T14:23:13.345Z,101937.39
2018-11-28T14:25:42.179Z,101958.63
2018-11-28T14:28:11.762Z,101950.00
2018-11-28T14:30:41.252Z,101955.11
2018-11-28T14:33:10.431Z,101961.77
2018-11-28T14:35:39.439Z,101962.90
2018-11-28T14:38:08.505Z,101970.43
2018-11-28T14:40:37.897Z,101973.30
2018-11-28T14:43:07.650Z,101963.37
2018-11-28T14:45:37.039Z,101961.59
2018-11-28T14:48:05.946Z,101964.02
2018-11-28T14:50:34.979Z,101960.13
2018-11-28T14:53:04.368Z,101953.32
2018-11-28T14:55:37.743Z,101939.97
2018-11-28T14:58:08.794Z,101938.36
2018-11-28T15:00:37.785Z,101931.45
2018-11-28T15:03:18.659Z,101943.73
2018-11-28T15:06:31.792Z,101945.79
2018-11-28T15:09:05.593Z,101941.50
2018-11-28T15:11:34.642Z,101936.27
2018-11-28T15:14:03.644Z,101938.33
2018-11-28T15:16:32.683Z,101946.25
2018-11-28T15:19:01.984Z,101950.48
2018-11-28T15:21:30.932Z,101949.95
2018-11-28T15:27:02.073Z,101954.42
2018-11-28T15:29:30.926Z,101949.25
2018-11-28T15:32:00.437Z,101978.08
2018-11-28T15:34:29.664Z,101944.88
2018-11-28T15:36:58.981Z,101937.09
2018-11-28T15:39:28.561Z,101942.56
2018-11-28T15:42:01.007Z,101959.88
2018-11-28T15:44:30.398Z,101941.56
2018-11-28T15:46:59.768Z,101945.39
2018-11-28T15:49:28.928Z,101932.70
2018-11-28T15:51:58.340Z,101893.63
2018-11-28T15:54:27.460Z,101929.34
2018-11-28T15:56:56.638Z,101922.10
2018-11-28T15:59:25.839Z,101914.33
2018-11-28T16:01:56.259Z,101919.80
2018-11-28T16:04:25.356Z,101927.07
2018-11-28T16:06:55.296Z,101920.77
2018-11-28T16:09:29.885Z,101918.22
2018-11-28T16:11:59.118Z,101924.75
2018-11-28T16:14:28.365Z,101920.98
2018-11-28T16:16:57.700Z,101922.66
2018-11-28T16:19:26.524Z,101917.97
2018-11-28T16:21:55.673Z,101911.09
2018-11-28T16:24:24.597Z,101918.68
2018-11-28T16:26:53.543Z,101917.81
2018-11-28T16:29:22.614Z,101922.50
2018-11-28T16:31:51.643Z,101927.54
2018-11-28T16:34:20.363Z,101935.13
2018-11-28T16:36:49.357Z,101925.64
2018-11-28T16:39:18.319Z,101937.11
2018-11-28T16:41:47.172Z,101927.66
2018-11-28T16:44:16.131Z,101930.13
2018-11-28T16:46:45.411Z,101929.64
2018-11-28T16:49:14.235Z,101926.52
2018-11-28T16:51:43.876Z,101924.62
2018-11-28T16:54:13.118Z,101922.38
2018-11-28T16:56:42.751Z,101922.70
2018-11-28T16:59:11.746Z,101918.48
2018-11-28T17:01:40.915Z,101925.35
2018-11-28T17:04:09.866Z,101936.41
2018-11-28T17:06:39.501Z,101919.73
2018-11-28T17:09:10.909Z,101914.05
2018-11-28T17:11:39.982Z,101907.43
2018-11-28T17:14:09.155Z,101904.89
2018-11-28T17:16:37.854Z,101904.11
2018-11-28T17:19:07.382Z,101904.57
2018-11-28T17:21:36.796Z,101894.03
2018-11-28T17:24:13.578Z,101891.08
2018-11-28T17:26:44.324Z,101887.72
2018-11-28T17:29:13.456Z,101886.72
2018-11-28T17:31:42.823Z,101882.02
2018-11-28T17:34:12.011Z,101882.02
2018-11-28T17:36:41.428Z,101885.53
2018-11-28T17:39:12.937Z,101878.15
2018-11-28T17:41:42.338Z,101874.30
2018-11-28T17:44:11.272Z,101866.19
2018-11-28T17:46:40.332Z,101864.91
2018-11-28T17:49:09.429Z,101864.13
2018-11-28T17:51:38.756Z,101863.63
2018-11-28T17:54:07.993Z,101859.95
2018-11-28T17:56:37.797Z,101865.73
2018-11-28T17:59:07.781Z,101866.56
2018-11-28T18:01:37.005Z,101854.48
2018-11-28T18:04:07.550Z,101851.49
2018-11-28T18:06:37.738Z,101851.33
2018-11-28T18:09:11.559Z,101846.82
2018-11-28T18:11:40.741Z,101838.41
2018-11-28T18:14:09.880Z,101845.14
2018-11-28T18:16:38.720Z,101838.59
2018-11-28T18:19:08.298Z,101853.78
2018-11-28T18:21:37.380Z,101844.64
2018-11-28T18:24:07.613Z,101850.45
2018-11-28T18:26:38.164Z,101838.96
2018-11-28T18:29:07.254Z,101839.83
2018-11-28T18:31:38.176Z,101841.32
2018-11-28T18:34:07.244Z,101850.58
2018-11-28T18:36:36.315Z,101846.98
2018-11-28T18:39:07.098Z,101845.89
2018-11-28T18:41:36.465Z,101842.00
2018-11-28T18:44:05.689Z,101846.64
2018-11-28T18:46:35.046Z,101834.00
2018-11-28T18:49:04.038Z,101827.84
2018-11-28T18:51:32.870Z,101824.06
2018-11-28T18:54:01.995Z,101816.98
2018-11-28T18:56:31.456Z,101818.28
2018-11-28T18:59:00.770Z,101808.59
2018-11-28T19:01:31.112Z,101807.89
2018-11-28T19:04:00.706Z,101812.27
2018-11-28T19:06:30.350Z,101815.80
2018-11-28T19:09:00.118Z,101827.48
2018-11-28T19:11:29.184Z,101819.00
2018-11-28T19:13:58.568Z,101811.53
2018-11-28T19:16:27.926Z,101813.41
2018-11-28T19:18:57.198Z,101820.44
2018-11-28T19:21:26.299Z,101824.99
2018-11-28T19:23:55.516Z,101820.00
2018-11-28T19:26:24.786Z,101810.14
2018-11-28T19:28:54.204Z,101821.05
2018-11-28T19:31:24.150Z,101823.87
2018-11-28T19:33:53.606Z,101817.81
2018-11-28T19:36:23.381Z,101830.00
2018-11-28T19:38:52.474Z,101825.09
2018-11-28T19:41:24.606Z,101823.68
2018-11-28T19:43:53.940Z,101813.67
2018-11-28T19:46:23.366Z,101814.22
2018-11-28T19:48:53.221Z,101813.17
2018-11-28T19:51:22.618Z,101813.78
2018-11-28T19:53:52.384Z,101811.42
2018-11-28T19:56:21.526Z,101819.73
2018-11-28T19:58:50.913Z,101825.16
2018-11-28T20:01:20.208Z,101820.68
2018-11-28T20:03:49.579Z,101820.06
2018-11-28T20:06:19.061Z,101824.62
2018-11-28T20:08:48.583Z,101822.45
2018-11-28T20:11:18.064Z,101820.25
2018-11-28T20:13:47.913Z,101817.64
2018-11-28T20:16:17.623Z,101809.13
2018-11-28T20:18:48.456Z,101801.07
2018-11-28T20:21:18.078Z,101805.42
2018-11-28T20:23:47.725Z,101805.23
2018-11-28T20:26:17.034Z,101804.74
2018-11-28T20:28:45.999Z,101806.33
2018-11-28T20:31:15.069Z,101802.19
2018-11-28T20:33:44.044Z,101792.87
2018-11-28T20:36:13.484Z,101791.59
2018-11-28T20:38:42.843Z,101791.12
2018-11-28T20:41:12.651Z,101787.15
2018-11-28T20:43:42.851Z,101789.20
2018-11-28T20:46:11.935Z,101798.81
2018-11-28T20:48:41.583Z,101800.45
2018-11-28T20:51:11.605Z,101797.38
2018-11-28T20:53:40.741Z,101802.78
2018-11-28T20:56:10.070Z,101801.45
2018-11-28T20:58:40.195Z,101793.20
2018-11-28T21:01:09.887Z,101786.16
2018-11-28T21:03:38.945Z,101794.17
2018-11-28T21:06:07.841Z,101798.39
2018-11-28T21:08:36.727Z,101798.02
2018-11-28T21:11:06.864Z,101795.78
2018-11-28T21:13:36.452Z,101790.96
2018-11-28T21:16:05.451Z,101794.38
2018-11-28T21:18:34.670Z,101773.44
2018-11-28T21:21:04.294Z,101773.31
2018-11-28T21:23:33.466Z,101771.11
2018-11-28T21:26:02.780Z,101770.27
2018-11-28T21:28:31.632Z,101764.11
2018-11-28T21:31:00.442Z,101758.80
2018-11-28T21:33:29.663Z,101765.16
2018-11-28T21:35:58.767Z,101752.30
2018-11-28T21:38:27.629Z,101756.89
2018-11-28T21:40:56.774Z,101751.58
2018-11-28T21:43:25.861Z,101754.59
2018-11-28T21:45:54.825Z,101748.02
2018-11-28T21:48:23.987Z,101756.06
2018-11-28T21:50:53.206Z,101755.20
2018-11-28T21:53:22.562Z,101752.78
2018-11-28T21:55:53.212Z,101749.77
2018-11-28T21:58:22.022Z,101737.04
2018-11-28T22:00:51.120Z,101735.30
2018-11-28T22:03:20.052Z,101723.28
2018-11-28T22:05:48.843Z,101740.97
2018-11-28T22:08:17.597Z,101723.89
2018-11-28T22:10:46.750Z,101730.96
2018-11-28T22:13:15.917Z,101732.50
2018-11-28T22:15:44.764Z,101738.46
2018-11-28T22:18:13.548Z,101739.80
2018-11-28T22:20:42.484Z,101729.35
2018-11-28T22:23:11.402Z,101731.02
2018-11-28T22:25:40.475Z,101742.98
2018-11-28T22:28:10.446Z,101723.16
2018-11-28T22:30:39.386Z,101718.06
2018-11-28T22:33:08.637Z,101707.87
2018-11-28T22:35:37.521Z,101703.97
2018-11-28T22:38:11.307Z,101701.82
2018-11-28T22:40:40.541Z,101701.24
2018-11-28T22:43:09.685Z,101708.30
2018-11-28T22:45:38.888Z,101715.63
2018-11-28T22:48:08.316Z,101714.86
2018-11-28T22:50:37.170Z,101699.48
2018-11-28T22:53:08.037Z,101699.98
2018-11-28T22:55:37.398Z,101704.58
2018-11-28T22:58:06.394Z,101694.73
2018-11-28T23:00:40.452Z,101698.62
2018-11-28T23:08:32.826Z,101672.72
2018-11-28T23:11:01.929Z,101665.43
2018-11-28T23:13:31.045Z,101666.44
2018-11-28T23:16:00.022Z,101662.69
2018-11-28T23:18:29.308Z,101653.57
2018-11-28T23:20:58.312Z,101652.94
2018-11-28T23:23:27.569Z,101648.17
2018-11-28T23:25:56.667Z,101650.15
2018-11-28T23:28:25.907Z,101656.25
2018-11-28T23:30:55.112Z,101359.59
2018-11-28T23:33:24.173Z,101653.34
2018-11-28T23:35:53.192Z,101654.40
2018-11-28T23:38:21.991Z,101651.04
2018-11-28T23:40:51.226Z,101648.38
2018-11-28T23:43:20.290Z,101638.02
2018-11-28T23:45:49.273Z,101639.46
2018-11-28T23:48:18.254Z,101636.75
2018-11-28T23:50:47.428Z,101628.25
2018-11-28T23:53:16.340Z,101636.48
2018-11-28T23:55:45.555Z,101629.14
2018-11-28T23:58:14.540Z,101629.43
